sensor_id;sensor_type;location;lat;lon;timestamp;P1;durP1;ratioP1;P2;durP2;ratioP2
44746;SDS011;30472;49.490;10.972;2023-08-01T00:00:11;7.90;;;5.30;;
44746;SDS011;30472;49.490;10.972;2023-08-01T00:02:37;7.23;;;5.20;;
44746;SDS011;30472;49.490;10.972;2023-08-01T00:05:03;7.53;;;5.30;;
44746;SDS011;30472;49.490;10.972;2023-08-01T00:07:29;8.80;;;4.90;;
44746;SDS011;30472;49.490;10.972;2023-08-01T00:09:55;9.17;;;5.90;;
44746;SDS011;30472;49.490;10.972;2023-08-01T00:12:20;6.70;;;5.47;;
44746;SDS011;30472;49.490;10.972;2023-08-01T00:14:46;8.23;;;5.30;;
44746;SDS011;30472;49.490;10.972;2023-08-01T00:17:12;7.37;;;5.00;;
44746;SDS011;30472;49.490;10.972;2023-08-01T00:19:38;6.93;;;4.90;;
44746;SDS011;30472;49.490;10.972;2023-08-01T00:22:03;9.23;;;5.50;;
44746;SDS011;30472;49.490;10.972;2023-08-01T00:24:29;7.37;;;5.70;;
44746;SDS011;30472;49.490;10.972;2023-08-01T00:26:54;9.27;;;5.77;;
44746;SDS011;30472;49.490;10.972;2023-08-01T00:29:21;8.37;;;6.07;;
44746;SDS011;30472;49.490;10.972;2023-08-01T00:31:47;8.70;;;5.37;;
44746;SDS011;30472;49.490;10.972;2023-08-01T00:34:12;9.77;;;5.53;;
44746;SDS011;30472;49.490;10.972;2023-08-01T00:36:38;6.90;;;5.50;;
44746;SDS011;30472;49.490;10.972;2023-08-01T00:39:03;8.00;;;6.07;;
44746;SDS011;30472;49.490;10.972;2023-08-01T00:41:29;8.33;;;6.10;;
44746;SDS011;30472;49.490;10.972;2023-08-01T00:43:55;8.57;;;6.30;;
44746;SDS011;30472;49.490;10.972;2023-08-01T00:46:20;8.27;;;5.73;;
44746;SDS011;30472;49.490;10.972;2023-08-01T00:48:46;10.50;;;5.50;;
44746;SDS011;30472;49.490;10.972;2023-08-01T00:51:12;8.70;;;6.27;;
44746;SDS011;30472;49.490;10.972;2023-08-01T00:53:38;9.93;;;6.47;;
44746;SDS011;30472;49.490;10.972;2023-08-01T00:56:04;7.17;;;5.33;;
44746;SDS011;30472;49.490;10.972;2023-08-01T00:58:30;8.03;;;5.33;;
44746;SDS011;30472;49.490;10.972;2023-08-01T01:00:56;9.80;;;5.60;;
44746;SDS011;30472;49.490;10.972;2023-08-01T01:03:22;7.73;;;5.40;;
44746;SDS011;30472;49.490;10.972;2023-08-01T01:08:49;8.73;;;5.77;;
44746;SDS011;30472;49.490;10.972;2023-08-01T01:11:15;8.37;;;5.80;;
44746;SDS011;30472;49.490;10.972;2023-08-01T01:13:40;6.17;;;5.57;;
44746;SDS011;30472;49.490;10.972;2023-08-01T01:16:06;12.80;;;5.60;;
44746;SDS011;30472;49.490;10.972;2023-08-01T01:18:32;6.47;;;5.23;;
44746;SDS011;30472;49.490;10.972;2023-08-01T01:20:57;7.40;;;5.67;;
44746;SDS011;30472;49.490;10.972;2023-08-01T01:23:23;7.30;;;5.30;;
44746;SDS011;30472;49.490;10.972;2023-08-01T01:25:50;9.07;;;5.47;;
44746;SDS011;30472;49.490;10.972;2023-08-01T01:28:17;7.30;;;5.40;;
44746;SDS011;30472;49.490;10.972;2023-08-01T01:30:44;10.20;;;5.00;;
44746;SDS011;30472;49.490;10.972;2023-08-01T01:33:10;9.10;;;5.43;;
44746;SDS011;30472;49.490;10.972;2023-08-01T01:35:37;7.90;;;4.47;;
44746;SDS011;30472;49.490;10.972;2023-08-01T01:38:03;7.97;;;5.07;;
44746;SDS011;30472;49.490;10.972;2023-08-01T01:40:32;8.00;;;5.00;;
44746;SDS011;30472;49.490;10.972;2023-08-01T01:42:59;6.93;;;5.00;;
44746;SDS011;30472;49.490;10.972;2023-08-01T01:45:25;11.13;;;4.90;;
44746;SDS011;30472;49.490;10.972;2023-08-01T01:47:50;7.80;;;4.67;;
44746;SDS011;30472;49.490;10.972;2023-08-01T01:50:16;7.47;;;4.60;;
44746;SDS011;30472;49.490;10.972;2023-08-01T01:52:43;7.83;;;4.47;;
44746;SDS011;30472;49.490;10.972;2023-08-01T01:55:08;6.50;;;4.40;;
44746;SDS011;30472;49.490;10.972;2023-08-01T01:57:34;6.00;;;3.90;;
44746;SDS011;30472;49.490;10.972;2023-08-01T02:00:02;6.77;;;4.17;;
44746;SDS011;30472;49.490;10.972;2023-08-01T02:02:28;7.37;;;4.40;;
44746;SDS011;30472;49.490;10.972;2023-08-01T02:04:54;7.67;;;4.60;;
44746;SDS011;30472;49.490;10.972;2023-08-01T02:07:19;8.17;;;4.47;;
44746;SDS011;30472;49.490;10.972;2023-08-01T02:09:45;5.80;;;4.60;;
44746;SDS011;30472;49.490;10.972;2023-08-01T02:12:11;5.90;;;4.37;;
44746;SDS011;30472;49.490;10.972;2023-08-01T02:14:38;8.23;;;4.70;;
44746;SDS011;30472;49.490;10.972;2023-08-01T02:17:04;7.00;;;4.93;;
44746;SDS011;30472;49.490;10.972;2023-08-01T02:19:30;8.43;;;4.20;;
44746;SDS011;30472;49.490;10.972;2023-08-01T02:21:55;8.30;;;5.50;;
44746;SDS011;30472;49.490;10.972;2023-08-01T02:24:21;7.07;;;5.13;;
44746;SDS011;30472;49.490;10.972;2023-08-01T02:26:47;6.60;;;4.40;;
44746;SDS011;30472;49.490;10.972;2023-08-01T02:29:13;5.80;;;4.43;;
44746;SDS011;30472;49.490;10.972;2023-08-01T02:31:39;7.67;;;3.93;;
44746;SDS011;30472;49.490;10.972;2023-08-01T02:34:04;5.20;;;4.43;;
44746;SDS011;30472;49.490;10.972;2023-08-01T02:36:30;6.23;;;3.90;;
44746;SDS011;30472;49.490;10.972;2023-08-01T02:38:56;8.40;;;4.63;;
44746;SDS011;30472;49.490;10.972;2023-08-01T02:41:21;6.33;;;3.93;;
44746;SDS011;30472;49.490;10.972;2023-08-01T02:43:47;7.53;;;4.03;;
44746;SDS011;30472;49.490;10.972;2023-08-01T02:46:12;6.97;;;4.40;;
44746;SDS011;30472;49.490;10.972;2023-08-01T02:48:38;7.17;;;4.73;;
44746;SDS011;30472;49.490;10.972;2023-08-01T02:51:03;6.67;;;4.20;;
44746;SDS011;30472;49.490;10.972;2023-08-01T02:53:29;9.83;;;3.80;;
44746;SDS011;30472;49.490;10.972;2023-08-01T02:55:54;7.20;;;4.33;;
44746;SDS011;30472;49.490;10.972;2023-08-01T02:58:20;5.40;;;4.20;;
44746;SDS011;30472;49.490;10.972;2023-08-01T03:00:45;4.90;;;3.73;;
44746;SDS011;30472;49.490;10.972;2023-08-01T03:03:12;8.50;;;4.30;;
44746;SDS011;30472;49.490;10.972;2023-08-01T03:05:38;6.47;;;4.20;;
44746;SDS011;30472;49.490;10.972;2023-08-01T03:08:04;6.00;;;4.47;;
44746;SDS011;30472;49.490;10.972;2023-08-01T03:10:30;4.97;;;4.30;;
44746;SDS011;30472;49.490;10.972;2023-08-01T03:12:55;5.47;;;4.00;;
44746;SDS011;30472;49.490;10.972;2023-08-01T03:15:21;5.63;;;4.67;;
44746;SDS011;30472;49.490;10.972;2023-08-01T03:17:47;6.90;;;3.60;;
44746;SDS011;30472;49.490;10.972;2023-08-01T03:20:12;5.43;;;4.33;;
44746;SDS011;30472;49.490;10.972;2023-08-01T03:22:38;6.10;;;4.30;;
44746;SDS011;30472;49.490;10.972;2023-08-01T03:25:05;5.27;;;3.70;;
44746;SDS011;30472;49.490;10.972;2023-08-01T03:27:34;6.27;;;4.50;;
44746;SDS011;30472;49.490;10.972;2023-08-01T03:30:00;6.47;;;4.40;;
44746;SDS011;30472;49.490;10.972;2023-08-01T03:32:26;6.63;;;4.53;;
44746;SDS011;30472;49.490;10.972;2023-08-01T03:34:51;7.23;;;4.43;;
44746;SDS011;30472;49.490;10.972;2023-08-01T03:37:17;7.10;;;5.20;;
44746;SDS011;30472;49.490;10.972;2023-08-01T03:39:43;5.90;;;4.50;;
44746;SDS011;30472;49.490;10.972;2023-08-01T03:42:09;8.03;;;4.23;;
44746;SDS011;30472;49.490;10.972;2023-08-01T03:44:34;5.47;;;4.23;;
44746;SDS011;30472;49.490;10.972;2023-08-01T03:47:00;5.67;;;4.50;;
44746;SDS011;30472;49.490;10.972;2023-08-01T03:49:26;7.03;;;4.63;;
44746;SDS011;30472;49.490;10.972;2023-08-01T03:51:51;5.00;;;4.20;;
44746;SDS011;30472;49.490;10.972;2023-08-01T03:54:17;5.50;;;4.60;;
44746;SDS011;30472;49.490;10.972;2023-08-01T03:56:42;5.97;;;4.40;;
44746;SDS011;30472;49.490;10.972;2023-08-01T03:59:09;5.73;;;4.30;;
44746;SDS011;30472;49.490;10.972;2023-08-01T04:01:36;6.03;;;4.17;;
44746;SDS011;30472;49.490;10.972;2023-08-01T04:04:02;6.10;;;4.43;;
44746;SDS011;30472;49.490;10.972;2023-08-01T04:06:27;9.17;;;4.97;;
44746;SDS011;30472;49.490;10.972;2023-08-01T04:08:53;6.67;;;4.67;;
44746;SDS011;30472;49.490;10.972;2023-08-01T04:11:21;5.17;;;4.23;;
44746;SDS011;30472;49.490;10.972;2023-08-01T04:13:47;6.23;;;4.60;;
44746;SDS011;30472;49.490;10.972;2023-08-01T04:16:12;5.07;;;3.77;;
44746;SDS011;30472;49.490;10.972;2023-08-01T04:18:38;6.73;;;4.40;;
44746;SDS011;30472;49.490;10.972;2023-08-01T04:21:03;5.03;;;4.40;;
44746;SDS011;30472;49.490;10.972;2023-08-01T04:23:29;6.17;;;3.93;;
44746;SDS011;30472;49.490;10.972;2023-08-01T04:25:54;9.20;;;4.60;;
44746;SDS011;30472;49.490;10.972;2023-08-01T04:28:20;5.13;;;4.17;;
44746;SDS011;30472;49.490;10.972;2023-08-01T04:30:49;8.90;;;4.93;;
44746;SDS011;30472;49.490;10.972;2023-08-01T04:33:15;7.80;;;4.43;;
44746;SDS011;30472;49.490;10.972;2023-08-01T04:35:40;6.00;;;4.17;;
44746;SDS011;30472;49.490;10.972;2023-08-01T04:38:06;7.67;;;4.50;;
44746;SDS011;30472;49.490;10.972;2023-08-01T04:40:33;6.20;;;4.27;;
44746;SDS011;30472;49.490;10.972;2023-08-01T04:43:00;5.40;;;4.50;;
44746;SDS011;30472;49.490;10.972;2023-08-01T04:45:26;6.20;;;3.90;;
44746;SDS011;30472;49.490;10.972;2023-08-01T04:47:52;6.90;;;4.67;;
44746;SDS011;30472;49.490;10.972;2023-08-01T04:50:18;9.27;;;4.57;;
44746;SDS011;30472;49.490;10.972;2023-08-01T04:52:43;6.63;;;4.07;;
44746;SDS011;30472;49.490;10.972;2023-08-01T04:55:09;7.63;;;4.47;;
44746;SDS011;30472;49.490;10.972;2023-08-01T04:57:34;5.20;;;4.17;;
44746;SDS011;30472;49.490;10.972;2023-08-01T05:00:00;8.50;;;4.23;;
44746;SDS011;30472;49.490;10.972;2023-08-01T05:02:26;8.37;;;4.30;;
44746;SDS011;30472;49.490;10.972;2023-08-01T05:04:51;6.23;;;4.70;;
44746;SDS011;30472;49.490;10.972;2023-08-01T05:07:17;6.63;;;4.30;;
44746;SDS011;30472;49.490;10.972;2023-08-01T05:09:42;5.90;;;4.17;;
44746;SDS011;30472;49.490;10.972;2023-08-01T05:12:08;6.07;;;4.43;;
44746;SDS011;30472;49.490;10.972;2023-08-01T05:14:34;5.63;;;4.40;;
44746;SDS011;30472;49.490;10.972;2023-08-01T05:17:00;5.13;;;4.00;;
44746;SDS011;30472;49.490;10.972;2023-08-01T05:19:25;6.30;;;3.80;;
44746;SDS011;30472;49.490;10.972;2023-08-01T05:21:51;8.07;;;4.97;;
44746;SDS011;30472;49.490;10.972;2023-08-01T05:24:17;6.47;;;4.37;;
44746;SDS011;30472;49.490;10.972;2023-08-01T05:26:42;7.00;;;4.20;;
44746;SDS011;30472;49.490;10.972;2023-08-01T05:29:08;5.20;;;4.20;;
44746;SDS011;30472;49.490;10.972;2023-08-01T05:31:33;7.07;;;5.10;;
44746;SDS011;30472;49.490;10.972;2023-08-01T05:33:59;6.73;;;4.83;;
44746;SDS011;30472;49.490;10.972;2023-08-01T05:36:24;7.03;;;4.30;;
44746;SDS011;30472;49.490;10.972;2023-08-01T05:38:50;9.87;;;3.97;;
44746;SDS011;30472;49.490;10.972;2023-08-01T05:41:15;7.37;;;4.57;;
44746;SDS011;30472;49.490;10.972;2023-08-01T05:43:41;6.10;;;4.63;;
44746;SDS011;30472;49.490;10.972;2023-08-01T05:46:07;7.07;;;4.57;;
44746;SDS011;30472;49.490;10.972;2023-08-01T05:48:32;7.07;;;5.70;;
44746;SDS011;30472;49.490;10.972;2023-08-01T05:50:58;6.90;;;4.80;;
44746;SDS011;30472;49.490;10.972;2023-08-01T05:53:23;6.53;;;4.30;;
44746;SDS011;30472;49.490;10.972;2023-08-01T05:55:49;6.77;;;4.00;;
44746;SDS011;30472;49.490;10.972;2023-08-01T05:58:15;5.00;;;3.97;;
44746;SDS011;30472;49.490;10.972;2023-08-01T06:00:40;6.97;;;4.53;;
44746;SDS011;30472;49.490;10.972;2023-08-01T06:03:06;11.03;;;5.00;;
44746;SDS011;30472;49.490;10.972;2023-08-01T06:05:32;7.53;;;4.37;;
44746;SDS011;30472;49.490;10.972;2023-08-01T06:07:57;7.90;;;4.70;;
44746;SDS011;30472;49.490;10.972;2023-08-01T06:10:23;6.50;;;4.47;;
44746;SDS011;30472;49.490;10.972;2023-08-01T06:12:48;5.70;;;4.13;;
44746;SDS011;30472;49.490;10.972;2023-08-01T06:15:14;7.10;;;4.50;;
44746;SDS011;30472;49.490;10.972;2023-08-01T06:17:40;6.37;;;4.87;;
44746;SDS011;30472;49.490;10.972;2023-08-01T06:20:06;6.57;;;4.30;;
44746;SDS011;30472;49.490;10.972;2023-08-01T06:22:31;6.77;;;4.20;;
44746;SDS011;30472;49.490;10.972;2023-08-01T06:24:57;6.70;;;4.77;;
44746;SDS011;30472;49.490;10.972;2023-08-01T06:27:23;7.53;;;4.23;;
44746;SDS011;30472;49.490;10.972;2023-08-01T06:29:48;6.00;;;4.30;;
44746;SDS011;30472;49.490;10.972;2023-08-01T06:32:14;9.50;;;4.50;;
44746;SDS011;30472;49.490;10.972;2023-08-01T06:34:39;5.63;;;4.00;;
44746;SDS011;30472;49.490;10.972;2023-08-01T06:37:05;6.50;;;4.07;;
44746;SDS011;30472;49.490;10.972;2023-08-01T06:39:31;4.73;;;4.20;;
44746;SDS011;30472;49.490;10.972;2023-08-01T06:41:56;6.87;;;4.47;;
44746;SDS011;30472;49.490;10.972;2023-08-01T06:44:22;5.53;;;4.23;;
44746;SDS011;30472;49.490;10.972;2023-08-01T06:46:47;8.33;;;4.20;;
44746;SDS011;30472;49.490;10.972;2023-08-01T06:49:13;5.60;;;4.07;;
44746;SDS011;30472;49.490;10.972;2023-08-01T06:51:38;6.50;;;4.47;;
44746;SDS011;30472;49.490;10.972;2023-08-01T06:54:04;6.30;;;4.53;;
44746;SDS011;30472;49.490;10.972;2023-08-01T06:56:29;5.83;;;4.33;;
44746;SDS011;30472;49.490;10.972;2023-08-01T06:58:55;6.23;;;4.57;;
44746;SDS011;30472;49.490;10.972;2023-08-01T07:01:20;5.30;;;4.00;;
44746;SDS011;30472;49.490;10.972;2023-08-01T07:03:47;6.30;;;4.17;;
44746;SDS011;30472;49.490;10.972;2023-08-01T07:06:13;9.07;;;5.00;;
44746;SDS011;30472;49.490;10.972;2023-08-01T07:08:38;6.90;;;4.53;;
44746;SDS011;30472;49.490;10.972;2023-08-01T07:11:04;7.20;;;5.00;;
44746;SDS011;30472;49.490;10.972;2023-08-01T07:13:29;7.20;;;4.67;;
44746;SDS011;30472;49.490;10.972;2023-08-01T07:15:55;5.47;;;4.33;;
44746;SDS011;30472;49.490;10.972;2023-08-01T07:18:20;8.53;;;5.43;;
44746;SDS011;30472;49.490;10.972;2023-08-01T07:20:46;7.70;;;4.70;;
44746;SDS011;30472;49.490;10.972;2023-08-01T07:23:11;9.03;;;4.70;;
44746;SDS011;30472;49.490;10.972;2023-08-01T07:25:37;7.87;;;4.47;;
44746;SDS011;30472;49.490;10.972;2023-08-01T07:28:03;8.70;;;4.60;;
44746;SDS011;30472;49.490;10.972;2023-08-01T07:30:28;7.53;;;4.07;;
44746;SDS011;30472;49.490;10.972;2023-08-01T07:32:54;5.43;;;4.20;;
44746;SDS011;30472;49.490;10.972;2023-08-01T07:35:19;8.97;;;5.10;;
44746;SDS011;30472;49.490;10.972;2023-08-01T07:37:45;6.60;;;3.70;;
44746;SDS011;30472;49.490;10.972;2023-08-01T07:40:10;8.97;;;4.90;;
44746;SDS011;30472;49.490;10.972;2023-08-01T07:42:36;7.73;;;4.67;;
44746;SDS011;30472;49.490;10.972;2023-08-01T07:45:02;7.97;;;4.87;;
44746;SDS011;30472;49.490;10.972;2023-08-01T07:47:28;7.87;;;4.60;;
44746;SDS011;30472;49.490;10.972;2023-08-01T07:49:53;5.30;;;4.23;;
44746;SDS011;30472;49.490;10.972;2023-08-01T07:52:19;4.97;;;4.10;;
44746;SDS011;30472;49.490;10.972;2023-08-01T07:54:44;9.57;;;4.20;;
44746;SDS011;30472;49.490;10.972;2023-08-01T07:57:10;5.67;;;4.53;;
44746;SDS011;30472;49.490;10.972;2023-08-01T07:59:36;9.07;;;4.50;;
44746;SDS011;30472;49.490;10.972;2023-08-01T08:02:02;6.17;;;4.40;;
44746;SDS011;30472;49.490;10.972;2023-08-01T08:04:27;8.03;;;4.20;;
44746;SDS011;30472;49.490;10.972;2023-08-01T08:06:53;6.30;;;4.10;;
44746;SDS011;30472;49.490;10.972;2023-08-01T08:09:20;5.87;;;4.03;;
44746;SDS011;30472;49.490;10.972;2023-08-01T08:11:47;7.33;;;5.00;;
44746;SDS011;30472;49.490;10.972;2023-08-01T08:14:13;5.93;;;4.43;;
44746;SDS011;30472;49.490;10.972;2023-08-01T08:16:40;5.93;;;4.20;;
44746;SDS011;30472;49.490;10.972;2023-08-01T08:19:05;6.33;;;4.23;;
44746;SDS011;30472;49.490;10.972;2023-08-01T08:21:31;6.63;;;4.20;;
44746;SDS011;30472;49.490;10.972;2023-08-01T08:23:57;9.47;;;4.93;;
44746;SDS011;30472;49.490;10.972;2023-08-01T08:26:22;8.17;;;4.27;;
44746;SDS011;30472;49.490;10.972;2023-08-01T08:28:48;8.97;;;4.50;;
44746;SDS011;30472;49.490;10.972;2023-08-01T08:31:14;7.90;;;4.70;;
44746;SDS011;30472;49.490;10.972;2023-08-01T08:33:40;7.13;;;4.30;;
44746;SDS011;30472;49.490;10.972;2023-08-01T08:36:05;10.23;;;4.27;;
44746;SDS011;30472;49.490;10.972;2023-08-01T08:38:31;7.10;;;4.27;;
44746;SDS011;30472;49.490;10.972;2023-08-01T08:43:35;5.20;;;3.90;;
44746;SDS011;30472;49.490;10.972;2023-08-01T08:46:01;5.67;;;4.17;;
44746;SDS011;30472;49.490;10.972;2023-08-01T08:48:28;5.90;;;3.93;;
44746;SDS011;30472;49.490;10.972;2023-08-01T08:50:57;5.50;;;3.93;;
44746;SDS011;30472;49.490;10.972;2023-08-01T08:53:24;4.93;;;3.90;;
44746;SDS011;30472;49.490;10.972;2023-08-01T08:55:50;7.67;;;3.80;;
44746;SDS011;30472;49.490;10.972;2023-08-01T08:58:16;5.90;;;4.00;;
44746;SDS011;30472;49.490;10.972;2023-08-01T09:00:42;4.13;;;3.60;;
44746;SDS011;30472;49.490;10.972;2023-08-01T09:03:09;4.40;;;3.97;;
44746;SDS011;30472;49.490;10.972;2023-08-01T09:05:37;5.60;;;4.17;;
44746;SDS011;30472;49.490;10.972;2023-08-01T09:08:13;5.87;;;4.30;;
44746;SDS011;30472;49.490;10.972;2023-08-01T09:10:45;6.60;;;4.47;;
44746;SDS011;30472;49.490;10.972;2023-08-01T09:13:11;6.83;;;4.50;;
44746;SDS011;30472;49.490;10.972;2023-08-01T09:15:37;6.80;;;4.30;;
44746;SDS011;30472;49.490;10.972;2023-08-01T09:18:05;6.17;;;4.30;;
44746;SDS011;30472;49.490;10.972;2023-08-01T09:23:10;7.87;;;4.20;;
44746;SDS011;30472;49.490;10.972;2023-08-01T09:25:36;6.63;;;4.40;;
44746;SDS011;30472;49.490;10.972;2023-08-01T09:28:02;5.33;;;3.73;;
44746;SDS011;30472;49.490;10.972;2023-08-01T09:30:28;5.97;;;4.13;;
44746;SDS011;30472;49.490;10.972;2023-08-01T09:32:54;4.80;;;3.63;;
44746;SDS011;30472;49.490;10.972;2023-08-01T09:35:20;6.43;;;4.47;;
44746;SDS011;30472;49.490;10.972;2023-08-01T09:37:47;6.00;;;3.90;;
44746;SDS011;30472;49.490;10.972;2023-08-01T09:40:13;5.73;;;4.23;;
44746;SDS011;30472;49.490;10.972;2023-08-01T09:42:45;6.50;;;4.33;;
44746;SDS011;30472;49.490;10.972;2023-08-01T09:45:14;7.53;;;4.63;;
44746;SDS011;30472;49.490;10.972;2023-08-01T09:47:44;6.43;;;4.27;;
44746;SDS011;30472;49.490;10.972;2023-08-01T09:50:11;7.90;;;4.47;;
44746;SDS011;30472;49.490;10.972;2023-08-01T09:52:44;6.30;;;4.30;;
44746;SDS011;30472;49.490;10.972;2023-08-01T09:55:11;7.53;;;3.97;;
44746;SDS011;30472;49.490;10.972;2023-08-01T09:57:37;5.83;;;4.27;;
44746;SDS011;30472;49.490;10.972;2023-08-01T10:00:06;4.83;;;3.97;;
44746;SDS011;30472;49.490;10.972;2023-08-01T10:02:34;4.70;;;4.10;;
44746;SDS011;30472;49.490;10.972;2023-08-01T10:05:00;6.30;;;4.30;;
44746;SDS011;30472;49.490;10.972;2023-08-01T10:07:27;5.03;;;4.03;;
44746;SDS011;30472;49.490;10.972;2023-08-01T10:09:57;5.60;;;3.70;;
44746;SDS011;30472;49.490;10.972;2023-08-01T10:12:23;4.13;;;3.53;;
44746;SDS011;30472;49.490;10.972;2023-08-01T10:14:51;5.30;;;3.63;;
44746;SDS011;30472;49.490;10.972;2023-08-01T10:17:17;3.97;;;3.55;;
44746;SDS011;30472;49.490;10.972;2023-08-01T10:19:44;4.47;;;3.42;;
44746;SDS011;30472;49.490;10.972;2023-08-01T10:22:11;5.90;;;3.20;;
44746;SDS011;30472;49.490;10.972;2023-08-01T10:24:38;3.85;;;2.90;;
44746;SDS011;30472;49.490;10.972;2023-08-01T10:27:13;5.07;;;3.45;;
44746;SDS011;30472;49.490;10.972;2023-08-01T10:29:58;5.70;;;3.42;;
44746;SDS011;30472;49.490;10.972;2023-08-01T10:32:35;5.07;;;3.08;;
44746;SDS011;30472;49.490;10.972;2023-08-01T10:35:01;3.35;;;2.83;;
44746;SDS011;30472;49.490;10.972;2023-08-01T10:37:38;4.90;;;2.95;;
44746;SDS011;30472;49.490;10.972;2023-08-01T10:40:12;3.40;;;2.70;;
44746;SDS011;30472;49.490;10.972;2023-08-01T10:42:41;2.90;;;2.50;;
44746;SDS011;30472;49.490;10.972;2023-08-01T10:45:19;3.67;;;2.78;;
44746;SDS011;30472;49.490;10.972;2023-08-01T10:47:49;4.07;;;2.42;;
44746;SDS011;30472;49.490;10.972;2023-08-01T10:50:15;5.07;;;3.08;;
44746;SDS011;30472;49.490;10.972;2023-08-01T10:52:42;3.33;;;2.67;;
44746;SDS011;30472;49.490;10.972;2023-08-01T10:55:08;3.33;;;2.38;;
44746;SDS011;30472;49.490;10.972;2023-08-01T10:57:35;2.58;;;2.33;;
44746;SDS011;30472;49.490;10.972;2023-08-01T11:00:03;2.00;;;1.80;;
44746;SDS011;30472;49.490;10.972;2023-08-01T11:02:34;2.28;;;1.92;;
44746;SDS011;30472;49.490;10.972;2023-08-01T11:05:06;2.90;;;2.30;;
44746;SDS011;30472;49.490;10.972;2023-08-01T11:07:33;2.05;;;1.85;;
44746;SDS011;30472;49.490;10.972;2023-08-01T11:12:42;3.55;;;2.03;;
44746;SDS011;30472;49.490;10.972;2023-08-01T11:15:10;2.72;;;1.77;;
44746;SDS011;30472;49.490;10.972;2023-08-01T11:17:39;2.13;;;1.92;;
44746;SDS011;30472;49.490;10.972;2023-08-01T11:20:07;2.35;;;1.67;;
44746;SDS011;30472;49.490;10.972;2023-08-01T11:22:34;2.10;;;1.80;;
44746;SDS011;30472;49.490;10.972;2023-08-01T11:25:01;2.45;;;2.00;;
44746;SDS011;30472;49.490;10.972;2023-08-01T11:27:27;2.40;;;1.77;;
44746;SDS011;30472;49.490;10.972;2023-08-01T11:29:53;2.92;;;2.08;;
44746;SDS011;30472;49.490;10.972;2023-08-01T11:32:19;2.00;;;1.80;;
44746;SDS011;30472;49.490;10.972;2023-08-01T11:34:45;2.17;;;1.75;;
44746;SDS011;30472;49.490;10.972;2023-08-01T11:37:12;2.55;;;1.60;;
44746;SDS011;30472;49.490;10.972;2023-08-01T11:39:39;1.73;;;1.60;;
44746;SDS011;30472;49.490;10.972;2023-08-01T11:42:06;1.75;;;1.65;;
44746;SDS011;30472;49.490;10.972;2023-08-01T11:44:31;2.13;;;1.67;;
44746;SDS011;30472;49.490;10.972;2023-08-01T11:46:57;1.52;;;1.35;;
44746;SDS011;30472;49.490;10.972;2023-08-01T11:49:23;2.60;;;1.42;;
44746;SDS011;30472;49.490;10.972;2023-08-01T11:51:49;2.33;;;1.02;;
44746;SDS011;30472;49.490;10.972;2023-08-01T11:54:14;1.48;;;1.15;;
44746;SDS011;30472;49.490;10.972;2023-08-01T11:56:42;1.30;;;0.80;;
44746;SDS011;30472;49.490;10.972;2023-08-01T11:59:14;1.02;;;0.93;;
44746;SDS011;30472;49.490;10.972;2023-08-01T12:01:41;1.10;;;0.80;;
44746;SDS011;30472;49.490;10.972;2023-08-01T12:04:08;1.33;;;0.90;;
44746;SDS011;30472;49.490;10.972;2023-08-01T12:06:34;1.08;;;0.80;;
44746;SDS011;30472;49.490;10.972;2023-08-01T12:09:10;3.40;;;1.05;;
44746;SDS011;30472;49.490;10.972;2023-08-01T12:11:37;1.20;;;0.95;;
44746;SDS011;30472;49.490;10.972;2023-08-01T12:16:34;1.08;;;0.95;;
44746;SDS011;30472;49.490;10.972;2023-08-01T12:19:00;1.63;;;0.98;;
44746;SDS011;30472;49.490;10.972;2023-08-01T12:21:25;1.67;;;0.98;;
44746;SDS011;30472;49.490;10.972;2023-08-01T12:23:51;1.88;;;0.95;;
44746;SDS011;30472;49.490;10.972;2023-08-01T12:26:17;1.88;;;1.08;;
44746;SDS011;30472;49.490;10.972;2023-08-01T12:28:42;1.02;;;0.80;;
44746;SDS011;30472;49.490;10.972;2023-08-01T12:31:08;1.00;;;0.77;;
44746;SDS011;30472;49.490;10.972;2023-08-01T12:33:33;1.25;;;0.80;;
44746;SDS011;30472;49.490;10.972;2023-08-01T12:35:59;0.70;;;0.70;;
44746;SDS011;30472;49.490;10.972;2023-08-01T12:38:26;2.40;;;1.00;;
44746;SDS011;30472;49.490;10.972;2023-08-01T12:40:51;1.13;;;0.70;;
44746;SDS011;30472;49.490;10.972;2023-08-01T12:43:17;2.60;;;1.00;;
44746;SDS011;30472;49.490;10.972;2023-08-01T12:45:43;1.73;;;0.88;;
44746;SDS011;30472;49.490;10.972;2023-08-01T12:48:08;3.20;;;1.17;;
44746;SDS011;30472;49.490;10.972;2023-08-01T12:50:34;2.30;;;1.05;;
44746;SDS011;30472;49.490;10.972;2023-08-01T12:52:59;0.98;;;0.88;;
44746;SDS011;30472;49.490;10.972;2023-08-01T12:55:25;2.03;;;0.70;;
44746;SDS011;30472;49.490;10.972;2023-08-01T12:57:50;0.85;;;0.82;;
44746;SDS011;30472;49.490;10.972;2023-08-01T13:00:16;1.20;;;0.63;;
44746;SDS011;30472;49.490;10.972;2023-08-01T13:02:42;0.60;;;0.60;;
44746;SDS011;30472;49.490;10.972;2023-08-01T13:05:08;2.55;;;0.98;;
44746;SDS011;30472;49.490;10.972;2023-08-01T13:07:34;1.30;;;1.10;;
44746;SDS011;30472;49.490;10.972;2023-08-01T13:10:00;1.65;;;0.82;;
44746;SDS011;30472;49.490;10.972;2023-08-01T13:12:26;1.45;;;0.77;;
44746;SDS011;30472;49.490;10.972;2023-08-01T13:14:51;2.30;;;0.93;;
44746;SDS011;30472;49.490;10.972;2023-08-01T13:17:17;1.05;;;0.90;;
44746;SDS011;30472;49.490;10.972;2023-08-01T13:19:44;1.00;;;0.70;;
44746;SDS011;30472;49.490;10.972;2023-08-01T13:22:09;1.05;;;0.95;;
44746;SDS011;30472;49.490;10.972;2023-08-01T13:24:35;1.25;;;0.65;;
44746;SDS011;30472;49.490;10.972;2023-08-01T13:27:00;0.70;;;0.70;;
44746;SDS011;30472;49.490;10.972;2023-08-01T13:29:26;0.75;;;0.75;;
44746;SDS011;30472;49.490;10.972;2023-08-01T13:31:52;1.48;;;0.80;;
44746;SDS011;30472;49.490;10.972;2023-08-01T13:34:17;0.70;;;0.70;;
44746;SDS011;30472;49.490;10.972;2023-08-01T13:36:43;1.48;;;0.90;;
44746;SDS011;30472;49.490;10.972;2023-08-01T13:39:08;0.80;;;0.80;;
44746;SDS011;30472;49.490;10.972;2023-08-01T13:41:34;0.60;;;0.43;;
44746;SDS011;30472;49.490;10.972;2023-08-01T13:44:00;3.45;;;0.93;;
44746;SDS011;30472;49.490;10.972;2023-08-01T13:46:27;2.00;;;0.90;;
44746;SDS011;30472;49.490;10.972;2023-08-01T13:48:52;0.77;;;0.65;;
44746;SDS011;30472;49.490;10.972;2023-08-01T13:51:18;3.55;;;1.02;;
44746;SDS011;30472;49.490;10.972;2023-08-01T13:53:43;1.77;;;1.00;;
44746;SDS011;30472;49.490;10.972;2023-08-01T13:56:09;1.85;;;0.98;;
44746;SDS011;30472;49.490;10.972;2023-08-01T13:58:36;1.48;;;1.27;;
44746;SDS011;30472;49.490;10.972;2023-08-01T14:01:03;1.58;;;0.90;;
44746;SDS011;30472;49.490;10.972;2023-08-01T14:03:30;1.25;;;1.15;;
44746;SDS011;30472;49.490;10.972;2023-08-01T14:06:03;1.77;;;1.07;;
44746;SDS011;30472;49.490;10.972;2023-08-01T14:08:39;2.20;;;1.30;;
44746;SDS011;30472;49.490;10.972;2023-08-01T14:11:06;3.07;;;1.37;;
44746;SDS011;30472;49.490;10.972;2023-08-01T14:13:33;2.00;;;0.97;;
44746;SDS011;30472;49.490;10.972;2023-08-01T14:15:59;1.67;;;1.10;;
44746;SDS011;30472;49.490;10.972;2023-08-01T14:18:25;1.67;;;1.10;;
44746;SDS011;30472;49.490;10.972;2023-08-01T14:20:51;1.65;;;0.80;;
44746;SDS011;30472;49.490;10.972;2023-08-01T14:23:18;1.00;;;0.60;;
44746;SDS011;30472;49.490;10.972;2023-08-01T14:25:44;1.50;;;0.98;;
44746;SDS011;30472;49.490;10.972;2023-08-01T14:28:10;2.13;;;1.00;;
44746;SDS011;30472;49.490;10.972;2023-08-01T14:30:36;2.42;;;0.70;;
44746;SDS011;30472;49.490;10.972;2023-08-01T14:33:06;2.65;;;0.70;;
44746;SDS011;30472;49.490;10.972;2023-08-01T14:35:36;1.30;;;0.80;;
44746;SDS011;30472;49.490;10.972;2023-08-01T14:38:02;1.10;;;0.82;;
44746;SDS011;30472;49.490;10.972;2023-08-01T14:40:31;1.35;;;0.70;;